Аэропорт: Актобе. Актобе

ICAO: UATT

METAR:
2019-07-23 18:30:00
UATT 231830Z 34004MPS CAVOK 22/09 Q1012 R31/70D NOSIG RMK QFE739/0985
METAR:
2019-07-23 17:00:00
TAF UATT 231700Z 2318/2418 34003MPS 9999 SCT050 TX31/2411Z TN16/2401Z TEMPO 2403/2414 36008MPS